Time;durP1;ratioP1;P1;durP2;ratioP2;P2;SDS_P1;SDS_P2;PMS_P1;PMS_P2;Temp;Humidity;BMP_temperature;BMP_pressure;BME280_temperature;BME280_humidity;BME280_pressure;Samples;Min_cycle;Max_cycle;Signal;HPM_P1;HPM_P2
2022/07/07 04:33:04;;;;;;;;;2.00;2.00;;;;;18.47;64.18;102010.00;5033744;28;45238;-71
2022/07/07 04:35:29;;;;;;;;;2.75;2.00;;;;;18.46;64.92;102008.25;5033366;28;45451;-72
2022/07/07 04:37:55;;;;;;;;;2.50;2.25;;;;;18.44;65.16;102010.22;5014953;28;45404;-73
2022/07/07 04:40:20;;;;;;;;;4.00;4.00;;;;;18.41;64.75;102015.81;5013223;28;45428;-71
2022/07/07 04:42:45;;;;;;;;;4.00;2.00;;;;;18.39;64.70;102018.59;5013791;28;45368;-74
2022/07/07 04:45:11;;;;;;;;;5.75;3.00;;;;;18.43;65.00;102016.59;5013214;28;45212;-73
2022/07/07 04:47:40;;;;;;;;;3.00;3.00;;;;;18.46;64.73;102021.84;5013344;28;45436;-71
2022/07/07 04:50:07;;;;;;;;;2.50;2.25;;;;;18.48;64.99;102028.06;5014026;28;45265;-73
2022/07/07 04:52:33;;;;;;;;;3.75;3.75;;;;;18.53;65.05;102029.56;5017099;28;45296;-72
2022/07/07 04:54:58;;;;;;;;;0.75;0.75;;;;;18.48;64.65;102023.50;5019101;28;45403;-73
2022/07/07 04:57:24;;;;;;;;;3.00;3.00;;;;;18.57;64.82;102034.81;5036749;28;46091;-73
2022/07/07 04:59:49;;;;;;;;;6.00;2.00;;;;;18.56;64.73;102035.75;5018611;28;45264;-73
2022/07/07 05:02:15;;;;;;;;;3.00;3.00;;;;;18.60;65.01;102040.97;5036554;28;45488;-72
2022/07/07 05:04:40;;;;;;;;;3.00;2.50;;;;;18.72;64.17;102047.50;5036294;28;45591;-71
2022/07/07 05:07:05;;;;;;;;;3.00;3.00;;;;;18.74;64.25;102049.16;5036486;28;45335;-73
2022/07/07 05:09:31;;;;;;;;;3.50;3.50;;;;;18.82;64.54;102046.88;5036035;28;45291;-72
2022/07/07 05:11:56;;;;;;;;;3.75;3.75;;;;;18.85;64.23;102056.69;5036629;28;45509;-73
2022/07/07 05:14:21;;;;;;;;;3.00;3.00;;;;;18.82;64.24;102060.44;5036341;28;45470;-72
2022/07/07 05:16:47;;;;;;;;;3.00;3.00;;;;;18.76;64.80;102062.66;5027524;28;45272;-72
2022/07/07 05:19:12;;;;;;;;;5.00;4.00;;;;;18.74;64.52;102062.75;5016238;28;45484;-69
2022/07/07 05:21:37;;;;;;;;;4.75;3.00;;;;;18.83;64.81;102053.19;5016479;28;45437;-73
2022/07/07 05:24:03;;;;;;;;;2.75;2.75;;;;;18.80;64.63;102065.09;5015964;28;49590;-73
2022/07/07 05:26:28;;;;;;;;;3.00;3.00;;;;;18.75;64.90;102061.78;5016051;28;45412;-74
2022/07/07 05:28:54;;;;;;;;;3.00;3.00;;;;;18.77;65.12;102051.72;5016062;28;45354;-76
2022/07/07 05:31:19;;;;;;;;;2.25;2.25;;;;;18.86;65.19;102053.00;5030662;28;45364;-76
2022/07/07 05:33:44;;;;;;;;;3.25;3.25;;;;;18.90;64.91;102050.00;5015745;28;52017;-76
2022/07/07 05:36:10;;;;;;;;;3.25;2.75;;;;;18.95;64.42;102057.00;5011490;28;46351;-74
2022/07/07 05:38:36;;;;;;;;;2.75;2.75;;;;;19.05;64.38;102067.25;5012261;28;45328;-76
2022/07/07 05:41:01;;;;;;;;;3.75;3.75;;;;;19.04;64.20;102051.03;5016086;28;45487;-81
2022/07/07 05:43:27;;;;;;;;;4.00;4.00;;;;;19.15;64.67;102064.81;5016111;28;45642;-75
2022/07/07 05:45:53;;;;;;;;;5.00;3.50;;;;;19.19;64.41;102063.69;5015974;28;46502;-73
2022/07/07 05:48:18;;;;;;;;;4.75;4.75;;;;;18.92;64.50;102043.59;5015601;28;45357;-76
2022/07/07 05:50:44;;;;;;;;;4.00;4.00;;;;;19.07;64.33;102054.41;5016284;28;45461;-75
2022/07/07 05:53:09;;;;;;;;;3.00;3.00;;;;;19.17;64.23;102062.88;5012105;28;45619;-74
2022/07/07 05:55:35;;;;;;;;;4.00;4.00;;;;;19.23;64.60;102065.22;5006392;28;46349;-73
2022/07/07 05:58:00;;;;;;;;;3.25;3.00;;;;;19.30;64.15;102072.06;5014543;28;45381;-73
2022/07/07 06:00:27;;;;;;;;;4.25;4.25;;;;;19.40;63.88;102070.50;5015753;28;45333;-73
2022/07/07 06:02:52;;;;;;;;;3.75;3.75;;;;;19.48;63.88;102075.53;5011754;28;46128;-74
2022/07/07 06:05:18;;;;;;;;;4.25;2.50;;;;;19.52;63.47;102080.69;5015246;28;47180;-72
2022/07/07 06:07:44;;;;;;;;;2.75;2.75;;;;;19.50;63.25;102079.00;5015327;28;45541;-73
2022/07/07 06:10:14;;;;;;;;;3.75;3.00;;;;;19.41;63.48;102079.53;5015594;28;45412;-74
2022/07/07 06:12:40;;;;;;;;;3.50;3.50;;;;;19.38;63.94;102083.34;5015499;28;45717;-73
2022/07/07 06:15:06;;;;;;;;;3.75;3.75;;;;;19.42;63.67;102078.56;5015498;28;46114;-73
2022/07/07 06:17:32;;;;;;;;;3.50;3.25;;;;;19.53;63.59;102096.03;5015266;28;45830;-74
2022/07/07 06:19:57;;;;;;;;;4.25;4.00;;;;;19.55;63.47;102104.09;5015729;28;45421;-72
2022/07/07 06:22:23;;;;;;;;;5.50;4.00;;;;;19.54;63.40;102107.78;5015010;28;45479;-74
2022/07/07 06:24:48;;;;;;;;;3.50;3.50;;;;;19.54;63.61;102102.34;5015069;28;45396;-74
2022/07/07 06:27:13;;;;;;;;;2.25;1.50;;;;;19.54;63.58;102105.94;5015320;28;45451;-75
2022/07/07 06:29:39;;;;;;;;;3.00;3.00;;;;;19.52;63.93;102109.72;5015668;28;45393;-73
2022/07/07 06:32:05;;;;;;;;;3.25;3.25;;;;;19.46;64.10;102110.06;5013258;28;45659;-73
2022/07/07 06:34:30;;;;;;;;;3.50;3.25;;;;;19.41;63.96;102098.59;5015204;28;45442;-73
2022/07/07 06:36:56;;;;;;;;;4.50;4.50;;;;;19.52;63.85;102121.47;5008315;28;45360;-74
2022/07/07 06:39:21;;;;;;;;;5.00;3.75;;;;;19.37;63.87;102106.06;5015228;28;45479;-73
2022/07/07 06:41:47;;;;;;;;;3.00;3.00;;;;;19.46;63.46;102110.94;5014949;28;45253;-73
2022/07/07 06:44:12;;;;;;;;;2.25;2.25;;;;;19.46;63.95;102119.09;5015053;28;45550;-71
2022/07/07 06:46:39;;;;;;;;;4.00;2.50;;;;;19.48;64.01;102119.91;5015106;28;45384;-72
2022/07/07 06:49:05;;;;;;;;;2.75;2.75;;;;;19.48;64.23;102125.34;5015400;28;45357;-73
2022/07/07 06:51:31;;;;;;;;;3.00;3.00;;;;;19.48;64.38;102124.50;5015011;28;45479;-74
2022/07/07 06:53:56;;;;;;;;;2.50;2.50;;;;;19.49;64.29;102124.38;5014907;28;46022;-72
2022/07/07 06:56:21;;;;;;;;;3.00;3.00;;;;;19.46;64.07;102118.22;5014563;28;45230;-73
2022/07/07 06:58:47;;;;;;;;;2.25;2.25;;;;;19.52;64.08;102126.03;5011535;28;45195;-74
2022/07/07 07:01:12;;;;;;;;;3.00;3.00;;;;;19.56;64.04;102128.47;5014597;28;46794;-73
2022/07/07 07:03:37;;;;;;;;;3.50;3.50;;;;;19.67;64.01;102122.38;5014794;28;46217;-73
2022/07/07 07:06:03;;;;;;;;;3.00;3.00;;;;;19.74;63.73;102126.44;5013088;28;45341;-73
2022/07/07 07:08:28;;;;;;;;;7.50;2.75;;;;;19.73;63.37;102112.97;5013307;28;45530;-73
2022/07/07 07:10:54;;;;;;;;;1.50;1.50;;;;;19.77;63.62;102125.41;5014391;28;45603;-73
2022/07/07 07:13:19;;;;;;;;;3.00;3.00;;;;;19.69;63.38;102104.09;5014147;28;46774;-73
2022/07/07 07:15:45;;;;;;;;;2.75;2.75;;;;;19.77;63.06;102126.28;5014542;28;45319;-74
2022/07/07 07:18:11;;;;;;;;;3.00;3.00;;;;;19.81;63.34;102137.84;5014712;28;45358;-73
2022/07/07 07:20:37;;;;;;;;;3.00;3.00;;;;;19.85;63.13;102137.56;5014177;28;45325;-73
2022/07/07 07:23:02;;;;;;;;;4.50;3.50;;;;;19.90;62.78;102149.06;5014374;28;45478;-74
2022/07/07 07:25:27;;;;;;;;;4.00;4.00;;;;;19.90;62.98;102135.44;5014374;28;45357;-73
2022/07/07 07:27:53;;;;;;;;;3.25;3.25;;;;;20.02;62.87;102144.66;5014926;28;45553;-73
2022/07/07 07:30:18;;;;;;;;;3.50;3.00;;;;;20.09;62.63;102142.41;5014238;28;45550;-73
2022/07/07 07:32:43;;;;;;;;;3.00;3.00;;;;;20.21;62.33;102155.25;5032869;28;45539;-74
2022/07/07 07:35:10;;;;;;;;;4.00;3.50;;;;;20.30;62.00;102152.81;5034132;28;45257;-73
2022/07/07 07:37:38;;;;;;;;;5.75;4.00;;;;;20.42;61.73;102145.72;5018249;28;45405;-73
2022/07/07 07:40:06;;;;;;;;;6.00;1.75;;;;;20.50;61.43;102150.72;5020889;28;46230;-74
2022/07/07 07:42:31;;;;;;;;;4.75;3.00;;;;;20.67;60.81;102158.66;5014149;28;46494;-72
2022/07/07 07:45:11;;;;;;;;;4.00;2.75;;;;;20.72;60.38;102164.66;5014062;28;45385;-72
2022/07/07 07:47:47;;;;;;;;;4.00;4.00;;;;;20.76;60.72;102155.28;5034410;28;45525;-73
2022/07/07 07:50:15;;;;;;;;;2.75;2.75;;;;;20.82;59.71;102156.75;5033863;28;45254;-73
2022/07/07 07:52:42;;;;;;;;;4.75;3.25;;;;;20.85;59.77;102162.84;5034446;28;46078;-72
2022/07/07 07:55:10;;;;;;;;;2.75;2.75;;;;;20.81;59.90;102171.34;5034253;28;45348;-72
2022/07/07 07:57:36;;;;;;;;;2.50;2.50;;;;;20.81;59.77;102174.97;5034217;28;45516;-73
2022/07/07 08:00:04;;;;;;;;;3.25;2.75;;;;;20.87;59.53;102168.22;5034017;28;45247;-74
2022/07/07 08:02:30;;;;;;;;;4.50;2.25;;;;;20.88;59.22;102168.13;5033737;28;45454;-75
2022/07/07 08:04:55;;;;;;;;;3.75;3.75;;;;;20.87;59.37;102160.03;5033786;28;45348;-73
2022/07/07 08:07:20;;;;;;;;;3.00;3.00;;;;;20.94;59.35;102159.53;5034048;28;45482;-72
2022/07/07 08:09:46;;;;;;;;;4.00;4.00;;;;;21.02;59.05;102164.47;5033621;28;45312;-73
2022/07/07 08:12:11;;;;;;;;;5.50;5.50;;;;;21.06;59.07;102155.09;5033765;28;46443;-74
2022/07/07 08:14:37;;;;;;;;;3.75;2.75;;;;;21.10;58.54;102165.69;5033901;28;45380;-73
2022/07/07 08:17:03;;;;;;;;;4.75;4.75;;;;;21.12;58.57;102154.69;5033883;28;45550;-74
2022/07/07 08:19:28;;;;;;;;;3.00;2.50;;;;;21.19;58.62;102166.94;5033652;28;45337;-73
2022/07/07 08:21:53;;;;;;;;;2.75;1.00;;;;;21.22;58.14;102155.84;5034093;28;45351;-73
2022/07/07 08:24:19;;;;;;;;;3.50;3.50;;;;;21.28;58.46;102147.22;5033732;28;45348;-73
2022/07/07 08:26:44;;;;;;;;;2.00;2.00;;;;;21.45;57.75;102152.41;5037119;28;45439;-75
2022/07/07 08:29:10;;;;;;;;;3.75;3.75;;;;;21.56;57.25;102158.97;5037092;28;45522;-73
2022/07/07 08:31:35;;;;;;;;;4.00;4.00;;;;;21.59;57.45;102151.47;5037060;28;45461;-74
2022/07/07 08:34:00;;;;;;;;;5.50;4.25;;;;;21.69;56.93;102151.69;5031180;28;45299;-73
2022/07/07 08:36:26;;;;;;;;;6.50;6.50;;;;;21.73;56.70;102148.63;5011073;28;45172;-73
2022/07/07 08:38:51;;;;;;;;;13.50;13.50;;;;;21.76;56.79;102137.50;5016705;28;45756;-73
2022/07/07 08:41:17;;;;;;;;;7.00;7.00;;;;;21.92;56.58;102148.22;5017135;28;45726;-73
2022/07/07 08:43:42;;;;;;;;;7.75;6.75;;;;;21.92;55.90;102123.63;5017153;28;45353;-74
2022/07/07 08:46:09;;;;;;;;;6.50;6.50;;;;;22.03;56.34;102139.28;5017265;28;45572;-72
2022/07/07 08:48:35;;;;;;;;;6.00;3.00;;;;;22.10;56.28;102151.50;5017243;28;45451;-74
2022/07/07 08:51:01;;;;;;;;;8.00;8.00;;;;;22.16;55.51;102148.34;5037245;28;46197;-73
2022/07/07 08:53:38;;;;;;;;;5.25;3.75;;;;;22.26;55.13;102152.16;5037243;28;45351;-73
2022/07/07 08:56:06;;;;;;;;;4.00;4.00;;;;;22.34;54.85;102159.78;5036594;28;45269;-72
2022/07/07 08:58:32;;;;;;;;;6.00;3.00;;;;;22.33;54.64;102156.19;5036710;28;45354;-73
2022/07/07 09:00:58;;;;;;;;;5.50;2.75;;;;;22.31;54.80;102158.13;5036768;28;45337;-73
2022/07/07 09:03:26;;;;;;;;;3.00;3.00;;;;;22.17;54.91;102167.34;5036779;28;45268;-73
2022/07/07 09:05:52;;;;;;;;;3.50;3.50;;;;;22.06;55.00;102147.25;5021556;28;45388;-74
2022/07/07 09:08:20;;;;;;;;;2.00;2.00;;;;;22.10;55.23;102156.97;5016338;28;45467;-72
2022/07/07 09:10:45;;;;;;;;;5.75;2.75;;;;;22.13;55.07;102148.53;5016177;28;45233;-72
2022/07/07 09:13:32;;;;;;;;;3.50;2.50;;;;;22.26;54.50;102153.03;5016634;28;45346;-73
2022/07/07 09:16:03;;;;;;;;;5.75;3.25;;;;;22.34;54.43;102144.25;5016494;28;45255;-73
2022/07/07 09:18:38;;;;;;;;;3.50;3.50;;;;;22.53;53.39;102141.94;5016479;28;45286;-74
2022/07/07 09:21:29;;;;;;;;;2.00;2.00;;;;;22.67;52.47;102138.16;5017286;28;46562;-70
2022/07/07 09:24:05;;;;;;;;;1.50;1.50;;;;;22.83;52.58;102146.13;5036156;28;45384;-73
2022/07/07 09:26:41;;;;;;;;;1.50;1.00;;;;;22.91;52.35;102146.41;5036380;28;45330;-73
2022/07/07 09:29:27;;;;;;;;;2.00;1.00;;;;;23.03;51.98;102153.69;5036071;28;45358;-73
2022/07/07 09:31:58;;;;;;;;;1.00;1.00;;;;;23.08;51.28;102159.69;5035548;28;46316;-74
2022/07/07 09:34:28;;;;;;;;;2.75;1.00;;;;;23.11;51.33;102164.06;5036097;28;45297;-72
2022/07/07 09:39:41;;;;;;;;;1.75;0.00;;;;;23.23;51.54;102166.72;5015867;28;45262;-72
2022/07/07 09:42:27;;;;;;;;;2.00;2.00;;;;;23.27;50.78;102172.84;5016132;28;46197;-73
2022/07/07 09:45:12;;;;;;;;;1.25;1.25;;;;;23.32;50.46;102170.59;5036131;28;45341;-73
2022/07/07 09:47:37;;;;;;;;;0.50;0.50;;;;;23.35;51.03;102181.34;5036619;28;45325;-73
2022/07/07 09:50:09;;;;;;;;;0.50;0.50;;;;;23.36;51.19;102183.97;5036385;28;45357;-72
2022/07/07 09:52:37;;;;;;;;;1.00;1.00;;;;;23.37;51.30;102188.44;5035983;28;46160;-72
2022/07/07 09:55:06;;;;;;;;;1.00;1.00;;;;;23.34;51.23;102193.25;5035316;28;45303;-73
2022/07/07 09:57:31;;;;;;;;;0.75;0.75;;;;;23.26;51.62;102195.72;5036007;28;45532;-73
2022/07/07 09:59:57;;;;;;;;;1.75;1.75;;;;;23.21;51.65;102200.69;5035834;28;45405;-73
2022/07/07 10:02:29;;;;;;;;;1.00;1.00;;;;;23.14;51.60;102211.19;5035563;28;51077;-73
2022/07/07 10:04:57;;;;;;;;;0.50;0.50;;;;;23.11;52.13;102222.38;5035996;28;45382;-72
2022/07/07 10:07:25;;;;;;;;;3.00;3.00;;;;;23.01;52.19;102213.13;5035612;28;45274;-73
2022/07/07 10:09:56;;;;;;;;;0.25;0.25;;;;;23.00;52.04;102225.03;5035190;28;45547;-73
2022/07/07 10:12:25;;;;;;;;;1.25;1.25;;;;;22.96;52.49;102229.00;5035625;28;45709;-73
2022/07/07 10:14:55;;;;;;;;;1.25;1.25;;;;;22.88;52.57;102229.56;5035379;28;45250;-73
2022/07/07 10:17:22;;;;;;;;;1.00;1.00;;;;;22.80;52.48;102229.25;5035650;28;45525;-72
2022/07/07 10:19:47;;;;;;;;;4.00;2.00;;;;;22.81;52.42;102241.06;5035188;28;45512;-73
2022/07/07 10:22:14;;;;;;;;;2.00;2.00;;;;;22.76;52.67;102246.88;5035250;28;45308;-74
2022/07/07 10:24:41;;;;;;;;;5.50;0.75;;;;;22.73;52.68;102248.91;5035201;28;45526;-73
2022/07/07 10:27:07;;;;;;;;;0.00;0.00;;;;;22.72;52.17;102242.56;5035371;28;45292;-73
2022/07/07 10:29:49;;;;;;;;;2.25;2.25;;;;;22.75;52.61;102252.47;5035194;28;45574;-72
2022/07/07 10:32:28;;;;;;;;;2.00;2.00;;;;;22.85;52.21;102254.41;5034679;28;46337;-73
2022/07/07 10:34:58;;;;;;;;;2.00;2.00;;;;;22.78;52.20;102241.31;5035230;28;45460;-73
2022/07/07 10:37:26;;;;;;;;;2.50;2.50;;;;;22.97;51.89;102258.97;5002860;28;45370;-73
2022/07/07 10:39:56;;;;;;;;;4.00;2.50;;;;;23.10;51.63;102253.47;5014811;28;45183;-74
2022/07/07 10:42:49;;;;;;;;;2.00;2.00;;;;;23.17;51.35;102254.75;5015454;28;45479;-73
2022/07/07 10:45:16;;;;;;;;;2.00;2.00;;;;;23.32;51.13;102269.13;5015252;28;45364;-72
2022/07/07 10:47:41;;;;;;;;;1.00;1.00;;;;;23.39;50.65;102268.56;5014735;28;45285;-73
2022/07/07 10:50:27;;;;;;;;;1.75;1.75;;;;;23.48;49.96;102269.72;5014733;28;45464;-72
2022/07/07 10:52:53;;;;;;;;;1.00;1.00;;;;;23.56;49.87;102272.78;5014905;28;45633;-73
2022/07/07 10:55:19;;;;;;;;;2.00;2.00;;;;;23.70;49.75;102272.59;5014834;28;45370;-73
2022/07/07 10:57:47;;;;;;;;;0.75;0.75;;;;;23.77;49.79;102265.66;5015239;28;45407;-73
2022/07/07 11:00:26;;;;;;;;;0.75;0.75;;;;;23.86;49.59;102263.19;5015161;28;45539;-73
2022/07/07 11:02:57;;;;;;;;;2.00;2.00;;;;;23.92;48.66;102265.44;5014725;28;46200;-73
2022/07/07 11:05:28;;;;;;;;;0.25;0.25;;;;;23.95;49.25;102265.22;5014960;28;45246;-74
2022/07/07 11:07:56;;;;;;;;;2.00;1.00;;;;;23.98;48.87;102279.56;5014796;28;45463;-75
2022/07/07 11:10:47;;;;;;;;;3.50;0.50;;;;;23.97;48.70;102272.34;5014515;28;45270;-74
2022/07/07 11:13:12;;;;;;;;;1.00;1.00;;;;;23.93;48.72;102279.03;5014740;28;45792;-73
2022/07/07 11:15:38;;;;;;;;;2.75;2.00;;;;;23.85;48.81;102275.16;5014513;28;45264;-73
2022/07/07 11:18:03;;;;;;;;;1.50;1.50;;;;;23.81;48.86;102284.63;5015550;28;45351;-74
2022/07/07 11:20:30;;;;;;;;;2.00;2.00;;;;;23.74;48.71;102278.72;5018328;28;45536;-74
2022/07/07 11:23:10;;;;;;;;;2.50;2.50;;;;;23.73;48.98;102288.78;5014450;28;45396;-73
2022/07/07 11:25:36;;;;;;;;;2.00;2.00;;;;;23.79;48.69;102278.38;5013944;28;45443;-73
2022/07/07 11:28:05;;;;;;;;;3.25;1.50;;;;;23.87;48.76;102287.75;5014796;28;45310;-74
2022/07/07 11:30:31;;;;;;;;;1.50;1.50;;;;;23.96;48.62;102277.94;5014111;28;45528;-74
2022/07/07 11:32:58;;;;;;;;;2.50;2.50;;;;;23.91;48.65;102278.28;5014458;28;46115;-73
2022/07/07 11:35:35;;;;;;;;;2.25;2.25;;;;;23.89;48.35;102280.28;5014424;28;45357;-72
2022/07/07 11:38:01;;;;;;;;;1.75;1.75;;;;;23.83;48.78;102286.22;5008562;28;45361;-72
2022/07/07 11:40:27;;;;;;;;;3.00;3.00;;;;;23.79;48.72;102281.97;5014375;28;45511;-73
2022/07/07 11:42:53;;;;;;;;;2.00;2.00;;;;;23.70;49.12;102286.31;5014555;28;45337;-72
2022/07/07 11:45:23;;;;;;;;;2.50;2.50;;;;;23.70;49.40;102294.53;5014059;28;45325;-73
2022/07/07 11:47:50;;;;;;;;;2.00;2.00;;;;;23.65;49.10;102287.63;5014370;28;45266;-72
2022/07/07 11:50:17;;;;;;;;;1.25;1.25;;;;;23.57;49.72;102277.25;5014270;28;45487;-72
2022/07/07 11:52:49;;;;;;;;;5.00;2.00;;;;;23.71;49.37;102299.00;5013797;28;46202;-74
2022/07/07 11:55:17;;;;;;;;;3.00;3.00;;;;;23.74;48.79;102298.75;5013973;28;45514;-73
2022/07/07 11:57:51;;;;;;;;;4.00;3.00;;;;;23.78;49.24;102299.41;5014041;28;45406;-73
2022/07/07 12:00:26;;;;;;;;;3.00;3.00;;;;;23.80;49.25;102293.81;5015269;28;45341;-73
2022/07/07 12:02:55;;;;;;;;;6.25;3.50;;;;;23.64;48.76;102269.47;5017510;28;45371;-73
2022/07/07 12:05:25;;;;;;;;;2.50;2.00;;;;;23.74;49.01;102297.88;5017743;28;45364;-73
2022/07/07 12:08:05;;;;;;;;;4.25;3.00;;;;;23.72;48.27;102300.75;5016365;28;45421;-73
2022/07/07 12:10:38;;;;;;;;;3.00;3.00;;;;;23.58;48.00;102294.56;5017284;28;45404;-74
2022/07/07 12:13:08;;;;;;;;;2.75;2.75;;;;;23.51;47.92;102296.91;5017587;28;45387;-73
2022/07/07 12:15:38;;;;;;;;;1.75;1.75;;;;;23.67;48.20;102297.47;5017575;28;45556;-74
2022/07/07 12:18:06;;;;;;;;;2.50;2.50;;;;;23.76;47.04;102301.38;5017658;28;45344;-75
2022/07/07 12:20:33;;;;;;;;;2.50;2.00;;;;;23.67;47.83;102282.91;5017292;28;45315;-75
2022/07/07 12:23:00;;;;;;;;;2.25;2.25;;;;;23.78;46.99;102288.44;5017323;28;45351;-72
2022/07/07 12:25:29;;;;;;;;;0.00;0.00;;;;;23.92;47.02;102306.53;5017017;28;45506;-73
2022/07/07 12:28:06;;;;;;;;;2.25;2.25;;;;;24.02;46.68;102302.09;5017631;28;45407;-73
2022/07/07 12:30:56;;;;;;;;;2.00;2.00;;;;;24.11;47.04;102312.34;5016897;28;45253;-73
2022/07/07 12:33:30;;;;;;;;;2.75;2.75;;;;;24.16;46.59;102301.03;5037024;28;45425;-74
2022/07/07 12:36:12;;;;;;;;;2.75;2.75;;;;;24.26;46.34;102305.69;5034910;28;45429;-73
2022/07/07 12:38:40;;;;;;;;;3.25;3.00;;;;;24.30;46.50;102318.16;5021944;28;45266;-73
2022/07/07 12:41:07;;;;;;;;;3.00;3.00;;;;;24.30;46.33;102318.16;5036804;28;45540;-73
2022/07/07 12:43:34;;;;;;;;;3.00;3.00;;;;;24.32;45.85;102326.28;5036755;28;45393;-72
2022/07/07 12:46:10;;;;;;;;;1.75;1.75;;;;;24.29;46.25;102326.50;5037088;28;45329;-74
2022/07/07 12:48:49;;;;;;;;;4.50;2.75;;;;;24.23;46.31;102327.88;5036645;28;45325;-73
2022/07/07 12:51:16;;;;;;;;;3.00;3.00;;;;;24.10;46.38;102321.56;5036886;28;45219;-74
2022/07/07 12:53:43;;;;;;;;;3.50;3.00;;;;;24.02;46.90;102333.13;5028551;28;45379;-72
2022/07/07 12:56:12;;;;;;;;;3.00;1.50;;;;;23.90;47.24;102335.94;5031623;28;45526;-73
2022/07/07 12:58:56;;;;;;;;;1.25;1.25;;;;;23.71;47.64;102328.25;5019183;28;45242;-74
2022/07/07 13:01:24;;;;;;;;;5.00;2.50;;;;;23.73;47.83;102334.50;5036519;28;45297;-73
2022/07/07 13:03:53;;;;;;;;;2.00;2.00;;;;;23.72;48.09;102333.63;5036659;28;45431;-73
2022/07/07 13:06:21;;;;;;;;;1.75;1.50;;;;;23.78;47.95;102340.50;5036629;28;45315;-73
2022/07/07 13:08:48;;;;;;;;;2.00;2.00;;;;;23.84;47.67;102336.38;5036684;28;45264;-72
2022/07/07 13:11:14;;;;;;;;;3.00;3.00;;;;;23.95;47.54;102339.19;5035639;28;46550;-74
2022/07/07 13:13:39;;;;;;;;;2.50;2.00;;;;;24.06;47.24;102339.25;5036418;28;46087;-72
2022/07/07 13:16:06;;;;;;;;;2.00;2.00;;;;;24.21;47.56;102350.91;5036424;28;45325;-73
2022/07/07 13:18:31;;;;;;;;;3.00;3.00;;;;;24.23;46.85;102336.09;5036764;28;45333;-74
2022/07/07 13:20:59;;;;;;;;;5.00;5.00;;;;;24.40;46.97;102351.22;5036091;28;45474;-74
2022/07/07 13:23:25;;;;;;;;;5.25;3.00;;;;;24.42;46.70;102343.72;5036516;28;46032;-74
2022/07/07 13:25:51;;;;;;;;;8.50;2.75;;;;;24.53;46.85;102362.97;5035914;28;45429;-73
2022/07/07 13:28:17;;;;;;;;;4.00;4.00;;;;;24.51;46.79;102348.47;5036285;28;45255;-72
2022/07/07 13:30:43;;;;;;;;;3.00;3.00;;;;;24.60;46.54;102353.25;5036018;28;45425;-73
2022/07/07 13:33:08;;;;;;;;;2.00;2.00;;;;;24.70;46.49;102358.88;5036768;28;45944;-73
2022/07/07 13:35:34;;;;;;;;;4.25;3.00;;;;;24.75;46.72;102359.41;5036599;28;45255;-73
2022/07/07 13:37:59;;;;;;;;;2.50;2.50;;;;;24.76;46.78;102364.72;5016973;28;45276;-74
2022/07/07 13:40:24;;;;;;;;;3.00;3.00;;;;;24.81;46.56;102365.25;5035577;28;45241;-74
2022/07/07 13:42:50;;;;;;;;;2.25;2.25;;;;;24.82;46.47;102361.53;5036144;28;45381;-74
2022/07/07 13:45:15;;;;;;;;;2.50;2.50;;;;;24.71;46.56;102349.66;5035981;28;45484;-74
2022/07/07 13:47:40;;;;;;;;;2.75;2.75;;;;;24.76;46.95;102353.75;5018430;28;45332;-73
2022/07/07 13:50:06;;;;;;;;;2.50;2.50;;;;;24.79;47.29;102372.72;5035878;28;45490;-73
2022/07/07 13:52:32;;;;;;;;;2.00;2.00;;;;;24.72;47.56;102355.00;5036236;28;45328;-73
2022/07/07 13:54:57;;;;;;;;;1.75;1.75;;;;;24.68;47.01;102353.50;5035554;28;45347;-72
2022/07/07 13:57:23;;;;;;;;;2.25;2.25;;;;;24.72;46.96;102370.59;5036218;28;45259;-73
2022/07/07 13:59:50;;;;;;;;;5.00;5.00;;;;;24.73;47.63;102378.72;5035644;28;45529;-73
2022/07/07 14:02:16;;;;;;;;;3.00;3.00;;;;;24.71;47.51;102388.06;5035815;28;45495;-73
2022/07/07 14:04:41;;;;;;;;;7.50;2.75;;;;;24.68;47.74;102383.66;5035532;28;45343;-73
2022/07/07 14:07:07;;;;;;;;;3.00;2.25;;;;;24.58;47.86;102379.94;5035832;28;45274;-74
2022/07/07 14:09:33;;;;;;;;;2.00;2.00;;;;;24.55;47.44;102384.78;5035129;28;45320;-74
2022/07/07 14:12:00;;;;;;;;;1.50;1.50;;;;;24.45;47.63;102376.41;5035808;28;46103;-73
2022/07/07 14:14:26;;;;;;;;;3.50;2.00;;;;;24.49;47.44;102378.78;5035280;28;45337;-74
2022/07/07 14:16:51;;;;;;;;;1.00;1.00;;;;;24.53;47.47;102387.63;5035740;28;45471;-73
2022/07/07 14:19:17;;;;;;;;;1.75;0.75;;;;;24.59;46.93;102387.13;5029835;28;45308;-74
2022/07/07 14:21:42;;;;;;;;;2.75;0.75;;;;;24.63;46.28;102394.16;5027726;28;46002;-73
2022/07/07 14:24:08;;;;;;;;;1.75;1.75;;;;;24.69;46.75;102390.03;5034074;28;45381;-73
2022/07/07 14:26:33;;;;;;;;;0.75;0.75;;;;;24.63;46.65;102388.66;5035938;28;45375;-74
2022/07/07 14:28:59;;;;;;;;;2.50;2.00;;;;;24.48;46.75;102368.81;5017204;28;46034;-74
2022/07/07 14:31:26;;;;;;;;;3.00;2.00;;;;;24.52;46.60;102394.97;5035551;28;46054;-72
2022/07/07 14:33:51;;;;;;;;;2.00;2.00;;;;;24.48;46.54;102395.34;5017311;28;45352;-73
2022/07/07 14:36:17;;;;;;;;;1.00;1.00;;;;;24.48;46.75;102392.63;5030145;28;45428;-73
2022/07/07 14:38:42;;;;;;;;;1.25;1.25;;;;;24.45;46.80;102385.50;5020163;28;45278;-74
2022/07/07 14:41:07;;;;;;;;;1.00;1.00;;;;;24.43;46.88;102382.00;5035188;28;45331;-74
2022/07/07 14:43:33;;;;;;;;;2.00;2.00;;;;;24.52;46.59;102388.63;5035067;28;45234;-73
2022/07/07 14:45:58;;;;;;;;;1.75;1.25;;;;;24.62;46.54;102388.78;5035375;28;45316;-74
2022/07/07 14:48:24;;;;;;;;;2.00;2.00;;;;;24.73;46.30;102397.91;5035232;28;45325;-72
2022/07/07 14:50:49;;;;;;;;;4.50;1.25;;;;;24.87;46.49;102394.06;5035111;28;45244;-73
2022/07/07 14:53:14;;;;;;;;;3.00;2.00;;;;;24.98;45.58;102376.78;5034924;28;45476;-72
2022/07/07 14:55:40;;;;;;;;;2.00;2.00;;;;;25.20;45.80;102391.34;5035072;28;45372;-73
2022/07/07 14:58:05;;;;;;;;;2.00;2.00;;;;;25.27;45.23;102380.75;5034790;28;45294;-74
2022/07/07 15:00:31;;;;;;;;;1.50;1.50;;;;;25.26;46.01;102384.50;5034915;28;46048;-73
2022/07/07 15:02:57;;;;;;;;;4.00;2.25;;;;;25.18;44.75;102397.97;5034736;28;45269;-73
2022/07/07 15:05:24;;;;;;;;;3.00;3.00;;;;;25.05;45.28;102391.72;5034986;28;45285;-73
2022/07/07 15:07:49;;;;;;;;;1.25;1.25;;;;;24.85;44.88;102393.28;5034563;28;45555;-75
2022/07/07 15:10:15;;;;;;;;;3.00;2.75;;;;;24.79;44.77;102399.28;5034573;28;46317;-73
2022/07/07 15:12:40;;;;;;;;;2.75;2.00;;;;;24.64;44.66;102395.91;5034749;28;45323;-73
2022/07/07 15:15:06;;;;;;;;;2.25;2.00;;;;;24.61;44.79;102393.38;5034908;28;45282;-72
2022/07/07 15:17:31;;;;;;;;;3.00;3.00;;;;;24.58;44.60;102396.38;5034603;28;45397;-73
2022/07/07 15:19:57;;;;;;;;;3.50;2.75;;;;;24.58;44.81;102399.13;5034359;28;47050;-73
2022/07/07 15:22:22;;;;;;;;;6.00;3.25;;;;;24.66;44.62;102396.66;5034523;28;45464;-73
2022/07/07 15:24:47;;;;;;;;;5.50;4.00;;;;;24.66;44.46;102391.16;5034494;28;45364;-74
2022/07/07 15:27:14;;;;;;;;;3.50;3.00;;;;;24.72;44.68;102385.19;5034738;28;45475;-73
2022/07/07 15:29:39;;;;;;;;;2.00;1.75;;;;;24.82;43.87;102391.69;5034317;28;45571;-74
2022/07/07 15:32:04;;;;;;;;;3.00;3.00;;;;;24.94;43.69;102402.69;5034141;28;45526;-73
2022/07/07 15:34:30;;;;;;;;;3.00;3.00;;;;;24.99;44.14;102403.22;5034579;28;45186;-72
2022/07/07 15:36:55;;;;;;;;;3.25;3.25;;;;;24.97;43.52;102396.97;5024042;28;45210;-73
2022/07/07 15:39:20;;;;;;;;;3.25;3.25;;;;;24.96;43.62;102396.09;5024700;28;45479;-73
2022/07/07 15:41:46;;;;;;;;;4.00;3.00;;;;;24.94;43.74;102402.69;5034467;28;45338;-73
2022/07/07 15:44:11;;;;;;;;;5.00;4.00;;;;;24.92;43.68;102408.34;5034515;28;45393;-72
2022/07/07 15:46:37;;;;;;;;;4.75;4.25;;;;;24.81;43.91;102406.41;5034372;28;45387;-73
2022/07/07 15:49:03;;;;;;;;;2.50;2.50;;;;;24.77;43.42;102412.25;5033972;28;46963;-74
2022/07/07 15:51:28;;;;;;;;;6.25;4.50;;;;;24.65;43.76;102413.22;5034271;28;45405;-74
2022/07/07 15:53:54;;;;;;;;;5.00;3.75;;;;;24.61;43.47;102409.84;5033550;28;45463;-73
2022/07/07 15:56:19;;;;;;;;;4.25;3.75;;;;;24.58;44.18;102411.97;5034011;28;45407;-75
2022/07/07 15:58:46;;;;;;;;;5.00;5.00;;;;;24.57;44.01;102413.84;5033841;28;45905;-74
2022/07/07 16:01:11;;;;;;;;;4.25;4.00;;;;;24.57;43.88;102415.69;5033667;28;45348;-74